createdAt,value
2022-10-18T00:01:02.932Z,13.83
2022-10-18T00:03:31.532Z,14.17
2022-10-18T00:06:00.092Z,13.03
2022-10-18T00:08:28.629Z,13.03
2022-10-18T00:10:56.792Z,12.73
2022-10-18T00:13:25.044Z,12.17
2022-10-18T00:16:01.145Z,11.67
2022-10-18T00:18:30.215Z,12.20
2022-10-18T00:20:59.781Z,12.47
2022-10-18T00:23:28.565Z,11.43
2022-10-18T00:26:01.382Z,12.87
2022-10-18T00:28:29.869Z,11.60
2022-10-18T00:30:59.585Z,11.67
2022-10-18T00:33:28.245Z,11.07
2022-10-18T00:35:56.433Z,11.27
2022-10-18T00:38:24.562Z,11.23
2022-10-18T00:40:52.714Z,10.23
2022-10-18T00:43:52.599Z,9.53
2022-10-18T03:07:41.289Z,13.20
2022-10-18T03:17:43.763Z,11.50
2022-10-18T05:40:38.198Z,11.70
2022-10-18T05:57:17.839Z,13.93
2022-10-18T11:15:11.269Z,18.73
2022-10-18T16:54:51.663Z,10.70
2022-10-18T16:57:20.095Z,10.07
2022-10-18T16:59:48.365Z,9.30
2022-10-18T17:02:16.721Z,8.87
2022-10-18T17:04:44.984Z,10.00
2022-10-18T17:07:19.515Z,9.90
2022-10-18T17:09:47.755Z,9.70
2022-10-18T17:12:17.444Z,12.23
2022-10-18T17:14:45.624Z,12.60
2022-10-18T17:17:14.220Z,12.90
2022-10-18T17:19:42.443Z,14.23
2022-10-18T17:22:10.641Z,12.97
2022-10-18T17:24:38.863Z,14.40
2022-10-18T17:27:07.246Z,14.67
2022-10-18T17:29:36.866Z,13.70
2022-10-18T17:32:08.294Z,14.20
2022-10-18T17:34:37.238Z,15.27
2022-10-18T17:37:06.234Z,14.90
2022-10-18T17:39:34.374Z,15.47
2022-10-18T17:42:02.574Z,16.90
2022-10-18T17:44:30.765Z,17.97
2022-10-18T17:47:00.325Z,17.30
2022-10-18T17:49:28.526Z,15.13
2022-10-18T17:51:56.675Z,14.57
2022-10-18T17:54:24.908Z,14.50
2022-10-18T17:56:53.844Z,14.00
2022-10-18T17:59:22.804Z,14.90
2022-10-18T18:01:51.038Z,15.93
2022-10-18T18:04:20.624Z,14.63
2022-10-18T18:06:49.295Z,16.63
2022-10-18T18:09:18.404Z,15.00
2022-10-18T18:11:49.484Z,15.67
2022-10-18T18:14:17.734Z,16.80
2022-10-18T18:16:47.404Z,16.67
2022-10-18T18:19:15.869Z,15.30
2022-10-18T18:21:45.404Z,15.57
2022-10-18T18:24:14.257Z,14.70
2022-10-18T18:26:43.484Z,13.43
2022-10-18T18:29:14.483Z,12.17
2022-10-18T18:31:43.780Z,12.67
2022-10-18T18:34:12.337Z,11.53
2022-10-18T18:36:41.103Z,12.30
2022-10-18T18:39:22.205Z,14.10
2022-10-18T18:41:51.658Z,14.60
2022-10-18T18:44:21.134Z,15.90
2022-10-18T18:46:49.836Z,17.00
2022-10-18T18:49:18.035Z,15.67
2022-10-18T18:51:46.347Z,16.87
2022-10-18T18:54:16.434Z,18.07
2022-10-18T18:56:44.825Z,16.47
2022-10-18T18:59:13.943Z,16.10
2022-10-18T19:01:42.875Z,18.33
2022-10-18T19:04:12.336Z,15.53
2022-10-18T19:06:41.716Z,12.90
2022-10-18T19:09:18.853Z,11.13
2022-10-18T19:11:49.594Z,12.40
2022-10-18T19:14:19.125Z,13.83
2022-10-18T19:16:48.565Z,12.90
2022-10-18T19:19:18.232Z,12.80
2022-10-18T19:21:47.865Z,12.73
2022-10-18T19:24:16.355Z,11.73
2022-10-18T19:26:46.445Z,14.17
2022-10-18T19:29:18.089Z,15.03
2022-10-18T19:31:46.822Z,15.40
2022-10-18T19:34:17.496Z,15.23
2022-10-18T19:36:47.294Z,16.13
2022-10-18T19:39:18.460Z,16.23
2022-10-18T19:41:46.910Z,17.17
2022-10-18T19:44:16.663Z,18.53
2022-10-18T19:46:45.116Z,17.80
2022-10-18T19:49:13.444Z,17.77
2022-10-18T19:51:41.788Z,17.90
2022-10-18T19:54:11.665Z,17.87
2022-10-18T19:56:41.275Z,19.13
2022-10-18T19:59:10.166Z,18.70
2022-10-18T20:01:39.838Z,18.23
2022-10-18T20:04:09.080Z,17.40
2022-10-18T20:06:38.150Z,18.77
2022-10-18T20:09:06.712Z,18.23
2022-10-18T20:11:35.484Z,18.63
2022-10-18T20:14:05.566Z,15.73
2022-10-18T20:16:34.877Z,15.40
2022-10-18T20:19:07.354Z,15.43
2022-10-18T20:21:36.697Z,14.13
2022-10-18T20:24:05.035Z,14.33
2022-10-18T20:26:33.575Z,14.47
2022-10-18T20:29:02.117Z,14.30
2022-10-18T20:31:31.403Z,14.87
2022-10-18T20:34:01.006Z,14.43
2022-10-18T20:36:31.823Z,12.97
2022-10-18T20:39:00.358Z,14.13
2022-10-18T20:41:30.616Z,13.83
2022-10-18T20:44:00.022Z,14.37
2022-10-18T20:46:28.848Z,13.87
2022-10-18T20:48:57.105Z,13.43
2022-10-18T20:51:25.435Z,13.17
2022-10-18T20:53:55.157Z,13.37
2022-10-18T20:56:26.652Z,17.47
2022-10-18T20:58:56.752Z,14.33
2022-10-18T21:01:26.572Z,13.20
2022-10-18T21:03:56.233Z,15.83
2022-10-18T21:06:25.874Z,12.47
2022-10-18T21:08:56.356Z,12.77
2022-10-18T21:11:25.088Z,15.20
2022-10-18T21:13:53.498Z,13.90
2022-10-18T21:16:22.017Z,12.93
2022-10-18T21:18:50.345Z,12.43
2022-10-18T21:21:19.796Z,12.73
2022-10-18T21:23:48.425Z,11.90
2022-10-18T21:26:19.676Z,11.50
2022-10-18T21:28:48.052Z,11.67
2022-10-18T21:31:17.492Z,12.17
2022-10-18T21:33:46.475Z,12.90
2022-10-18T21:36:15.583Z,11.23
2022-10-18T21:38:45.965Z,12.50
2022-10-18T21:41:15.465Z,12.97
2022-10-18T21:43:46.526Z,14.07
2022-10-18T21:46:15.775Z,12.27
2022-10-18T21:48:45.397Z,13.60
2022-10-18T21:51:14.785Z,14.63
2022-10-18T21:53:44.885Z,13.23
2022-10-18T21:56:15.025Z,12.23
2022-10-18T21:58:46.516Z,13.13
2022-10-18T22:01:16.437Z,14.63
2022-10-18T22:03:45.595Z,12.60
2022-10-18T22:06:15.353Z,11.73
2022-10-18T22:08:44.718Z,11.63
2022-10-18T22:11:13.475Z,11.40
2022-10-18T22:13:42.185Z,13.00
2022-10-18T22:16:14.414Z,13.50
2022-10-18T22:18:42.965Z,14.70
2022-10-18T22:21:12.838Z,12.20
2022-10-18T22:23:42.646Z,13.00
2022-10-18T22:26:12.495Z,15.40
2022-10-18T22:28:41.490Z,14.27
2022-10-18T22:31:17.303Z,14.90
2022-10-18T22:33:45.775Z,13.43
2022-10-18T22:36:14.398Z,13.43
2022-10-18T22:38:42.775Z,12.97
2022-10-18T22:41:12.918Z,12.90
2022-10-18T22:43:41.736Z,12.23
2022-10-18T22:46:11.237Z,11.90
2022-10-18T22:48:41.145Z,19.90
2022-10-18T22:51:09.758Z,10.30
2022-10-18T22:53:38.916Z,11.77
2022-10-18T22:56:07.875Z,10.60
2022-10-18T22:58:36.038Z,11.50
2022-10-18T23:01:05.696Z,10.50
2022-10-18T23:03:34.305Z,10.27
2022-10-18T23:06:04.495Z,10.67
2022-10-18T23:08:32.946Z,11.43
2022-10-18T23:11:01.487Z,10.67
2022-10-18T23:13:29.829Z,12.30
2022-10-18T23:16:04.544Z,12.53
2022-10-18T23:18:33.953Z,13.33
2022-10-18T23:21:04.504Z,12.63
2022-10-18T23:23:35.627Z,11.93
2022-10-18T23:26:05.205Z,12.73
2022-10-18T23:28:35.487Z,13.77
2022-10-18T23:31:08.045Z,12.53
2022-10-18T23:33:36.273Z,13.37
2022-10-18T23:36:06.659Z,13.63
2022-10-18T23:38:35.240Z,13.30
2022-10-18T23:41:03.338Z,12.63
2022-10-18T23:43:31.665Z,13.80
2022-10-18T23:45:59.948Z,13.00
2022-10-18T23:48:28.336Z,12.23
2022-10-18T23:50:56.635Z,12.97
2022-10-18T23:53:26.155Z,14.13
2022-10-18T23:55:55.516Z,13.40
2022-10-18T23:58:23.854Z,12.47
